createdAt,value
2019-04-27T00:04:52.833Z,12.00
2019-04-27T00:20:14.857Z,11.69
2019-04-27T00:35:27.084Z,11.59
2019-04-27T00:50:34.445Z,11.30
2019-04-27T01:05:43.046Z,11.46
2019-04-27T01:20:49.995Z,11.56
2019-04-27T01:35:56.867Z,11.85
2019-04-27T01:51:04.066Z,11.77
2019-04-27T02:06:11.346Z,11.53
2019-04-27T02:21:19.316Z,10.74
2019-04-27T02:36:27.366Z,10.61
2019-04-27T02:51:36.032Z,10.58
2019-04-27T03:06:43.878Z,10.62
2019-04-27T03:22:09.766Z,10.71
2019-04-27T03:37:17.071Z,11.11
2019-04-27T03:52:30.042Z,10.79
2019-04-27T04:07:40.249Z,11.47
2019-04-27T04:22:47.506Z,11.84
2019-04-27T04:37:54.794Z,12.27
2019-04-27T04:53:01.834Z,12.35
2019-04-27T05:08:09.119Z,12.92
2019-04-27T05:23:18.644Z,13.44
2019-04-27T05:38:25.933Z,13.96
2019-04-27T05:53:32.919Z,14.34
2019-04-27T06:08:39.485Z,14.47
2019-04-27T06:23:46.747Z,14.85
2019-04-27T06:38:53.091Z,15.21
2019-04-27T06:54:01.245Z,15.66
2019-04-27T07:09:10.760Z,15.63
2019-04-27T07:24:19.498Z,15.57
2019-04-27T07:39:26.747Z,15.46
2019-04-27T07:54:38.478Z,15.63
2019-04-27T08:09:45.390Z,15.75
2019-04-27T08:24:52.792Z,15.36
2019-04-27T08:40:01.768Z,15.15
2019-04-27T08:55:11.484Z,14.92
2019-04-27T09:10:20.610Z,16.63
2019-04-27T09:25:29.475Z,16.44
2019-04-27T09:40:37.204Z,15.90
2019-04-27T09:55:47.850Z,15.91
2019-04-27T10:10:56.753Z,16.01
2019-04-27T10:26:05.872Z,15.92
2019-04-27T10:41:15.819Z,15.88
2019-04-27T10:56:22.872Z,15.93
2019-04-27T11:11:36.408Z,16.00
2019-04-27T11:26:44.427Z,16.02
2019-04-27T11:41:51.584Z,15.86
2019-04-27T11:57:02.007Z,15.73
2019-04-27T12:12:14.983Z,15.61
2019-04-27T12:27:35.914Z,15.40
2019-04-27T12:42:44.591Z,15.37
2019-04-27T12:57:57.663Z,15.07
2019-04-27T13:13:06.331Z,15.14
2019-04-27T13:28:14.224Z,15.09
2019-04-27T13:43:28.275Z,15.19
2019-04-27T13:58:34.778Z,14.96
2019-04-27T14:13:42.321Z,14.86
2019-04-27T14:28:50.743Z,14.59
2019-04-27T14:44:07.751Z,14.38
2019-04-27T14:59:10.675Z,14.27
2019-04-27T15:14:20.650Z,14.17
2019-04-27T15:29:29.473Z,13.90
2019-04-27T15:44:44.165Z,13.93
2019-04-27T15:59:53.490Z,13.72
2019-04-27T16:15:05.070Z,13.75
2019-04-27T16:30:18.182Z,13.75
2019-04-27T16:45:27.212Z,13.86
2019-04-27T17:00:33.783Z,13.65
2019-04-27T17:15:55.135Z,13.47
2019-04-27T17:31:03.889Z,13.36
2019-04-27T17:46:11.514Z,13.18
2019-04-27T18:01:22.607Z,12.97
2019-04-27T18:16:33.780Z,12.98
2019-04-27T18:31:38.324Z,12.93
2019-04-27T18:46:45.003Z,12.95
2019-04-27T19:01:52.179Z,12.86
2019-04-27T19:16:58.995Z,12.87
2019-04-27T19:32:07.927Z,12.79
2019-04-27T19:47:15.572Z,12.76
2019-04-27T20:02:29.816Z,12.68
2019-04-27T20:17:42.108Z,12.64
2019-04-27T20:32:57.072Z,12.52
2019-04-27T20:48:04.320Z,12.55
2019-04-27T21:03:12.585Z,12.49
2019-04-27T21:18:19.415Z,12.48
2019-04-27T21:33:28.186Z,12.37
2019-04-27T21:48:34.938Z,12.34
2019-04-27T22:03:44.816Z,12.13
2019-04-27T22:18:52.122Z,12.16
2019-04-27T22:34:11.039Z,12.13
2019-04-27T22:49:17.648Z,12.21
2019-04-27T23:04:36.155Z,12.11
2019-04-27T23:19:43.235Z,12.23
2019-04-27T23:34:51.420Z,12.09
2019-04-27T23:50:00.822Z,12.16
